Waseca, Minnesota
Current Conditions -  °F | °C
As of 10:34 AM on Wednesday 22 Oct 2014 (Local Time) from KACQ Reporting Station
Overcast Overcast  
Wind Chill: 42°   Ceiling: 4800
Heat Index: 48°   Visibility: 10mi
Dew Point: 36°   Wind: 16mph
Humidity: 62%   Direction: 150°SSE
Pressure: 30.19"   Gusts: 21mph
Location:  44.08°N, 93.51°W
Report Text: KACQ 221534Z AUTO 15014G18KT 10SM OVC048 09/02 A3019 RMK AO2
Loading
Personal Weather Stations






























Interactive Weather Map
Tropical Storm Tracking
New forecast layout! Learn more

10-Day Weather Forecast

Advertisements
Track Severe Weather on mobile